Time;durP1;ratioP1;P1;durP2;ratioP2;P2;SDS_P1;SDS_P2;PMS_P1;PMS_P2;Temp;Humidity;BMP_temperature;BMP_pressure;BME280_temperature;BME280_humidity;BME280_pressure;Samples;Min_cycle;Max_cycle;Signal;HPM_P1;HPM_P2
2021/04/08 00:01:43;;;;;;;14.63;2.05;;;0.60;95.30;;;;;;5073804;28;20074;-81
2021/04/08 00:04:08;;;;;;;19.25;2.85;;;0.60;95.40;;;;;;5062628;28;20047;-82
2021/04/08 00:06:34;;;;;;;17.58;2.22;;;0.60;95.40;;;;;;5065096;28;20048;-81
2021/04/08 00:09:00;;;;;;;22.00;2.35;;;0.50;95.40;;;;;;5060862;28;20373;-80
2021/04/08 00:11:26;;;;;;;16.27;2.45;;;0.50;95.40;;;;;;5058802;28;20048;-80
2021/04/08 00:13:52;;;;;;;19.90;2.70;;;0.50;95.70;;;;;;5064932;28;20036;-82
2021/04/08 00:16:17;;;;;;;25.60;2.78;;;0.50;95.50;;;;;;5059012;28;20032;-82
2021/04/08 00:18:44;;;;;;;19.23;2.65;;;0.40;95.40;;;;;;5074994;28;20057;-80
2021/04/08 00:21:10;;;;;;;25.23;3.40;;;0.40;95.50;;;;;;5096031;28;20047;-81
2021/04/08 00:23:37;;;;;;;23.50;3.03;;;0.50;95.50;;;;;;5088344;28;20126;-82
2021/04/08 00:26:03;;;;;;;15.27;3.85;;;0.30;95.50;;;;;;5082145;28;20063;-81
2021/04/08 00:28:29;;;;;;;25.08;3.15;;;0.30;95.50;;;;;;5094213;28;20046;-79
2021/04/08 00:30:56;;;;;;;21.70;3.33;;;0.30;95.50;;;;;;5084428;28;20126;-81
2021/04/08 00:33:21;;;;;;;16.88;2.28;;;0.30;95.50;;;;;;5058829;28;20328;-79
2021/04/08 00:35:47;;;;;;;11.52;2.80;;;0.20;95.50;;;;;;5046032;28;20050;-83
2021/04/08 00:38:13;;;;;;;26.15;3.03;;;0.20;95.60;;;;;;5057979;28;20063;-81
2021/04/08 00:40:40;;;;;;;20.38;2.58;;;0.20;95.60;;;;;;5077100;28;20540;-82
2021/04/08 00:43:06;;;;;;;22.35;2.70;;;0.20;95.60;;;;;;5074881;28;20096;-79
2021/04/08 00:45:33;;;;;;;17.42;2.28;;;0.20;95.60;;;;;;5069111;28;20033;-80
2021/04/08 00:47:59;;;;;;;22.00;2.40;;;0.20;95.70;;;;;;5075928;28;20028;-80
2021/04/08 00:50:26;;;;;;;21.15;2.22;;;0.20;95.80;;;;;;5077304;28;20420;-80
2021/04/08 00:53:18;;;;;;;19.65;2.90;;;0.30;95.80;;;;;;5067914;28;20051;-82
2021/04/08 00:55:46;;;;;;;26.83;3.13;;;0.40;95.80;;;;;;5083693;28;20044;-81
2021/04/08 00:58:13;;;;;;;15.77;2.85;;;0.50;95.80;;;;;;5083743;28;20039;-79
2021/04/08 01:00:42;;;;;;;17.05;2.65;;;0.50;95.80;;;;;;5087979;28;20039;-81
2021/04/08 01:03:08;;;;;;;18.10;2.80;;;0.50;95.80;;;;;;5074801;28;20127;-80
2021/04/08 01:05:34;;;;;;;23.13;2.40;;;0.50;95.70;;;;;;5063468;28;20145;-82
2021/04/08 01:08:01;;;;;;;21.25;2.50;;;0.50;95.70;;;;;;5087478;28;20051;-81
2021/04/08 01:10:27;;;;;;;14.43;2.30;;;0.50;95.70;;;;;;5073804;28;20505;-81
2021/04/08 01:12:57;;;;;;;22.98;2.30;;;0.40;95.70;;;;;;5107233;27;20288;-82
2021/04/08 01:15:24;;;;;;;16.65;2.85;;;0.40;95.70;;;;;;5090499;28;20036;-81
2021/04/08 01:18:24;;;;;;;17.50;2.15;;;0.40;95.60;;;;;;5088794;28;20036;-81
2021/04/08 01:20:59;;;;;;;16.98;2.10;;;0.40;95.70;;;;;;5092228;28;20553;-82
2021/04/08 01:23:34;;;;;;;11.95;2.42;;;0.40;95.70;;;;;;5089930;28;20036;-79
2021/04/08 01:26:15;;;;;;;12.20;1.63;;;0.40;95.70;;;;;;5089079;28;20067;-82
2021/04/08 01:29:23;;;;;;;15.20;2.88;;;0.40;95.70;;;;;;5088562;28;20407;-80
2021/04/08 01:31:51;;;;;;;16.13;2.20;;;0.40;95.80;;;;;;5074069;28;20119;-81
2021/04/08 01:34:20;;;;;;;14.48;2.00;;;0.40;95.70;;;;;;5069420;28;20063;-81
2021/04/08 01:36:56;;;;;;;9.05;1.23;;;0.40;95.80;;;;;;5068350;28;20031;-81
2021/04/08 01:39:24;;;;;;;12.77;2.25;;;0.50;95.80;;;;;;5067868;28;20033;-79
2021/04/08 01:41:54;;;;;;;16.65;1.60;;;0.50;95.70;;;;;;5071209;28;20043;-81
2021/04/08 01:44:24;;;;;;;13.43;1.48;;;0.50;95.70;;;;;;5070643;28;20508;-81
2021/04/08 01:46:58;;;;;;;11.88;2.60;;;0.60;95.70;;;;;;5052490;28;20035;-81
2021/04/08 01:49:27;;;;;;;8.02;1.15;;;0.60;95.60;;;;;;5070329;28;20028;-80
2021/04/08 01:51:57;;;;;;;12.05;1.85;;;0.70;95.60;;;;;;5074962;28;20044;-81
2021/04/08 01:54:25;;;;;;;19.10;2.50;;;0.70;95.60;;;;;;5059794;28;20032;-81
2021/04/08 01:56:58;;;;;;;9.80;1.77;;;0.80;95.60;;;;;;5058772;28;20032;-81
2021/04/08 01:59:24;;;;;;;14.40;1.85;;;0.80;95.60;;;;;;5075409;28;20024;-82
2021/04/08 02:01:53;;;;;;;16.27;1.70;;;0.90;95.60;;;;;;5071125;28;20239;-81
2021/04/08 02:04:19;;;;;;;19.77;1.70;;;1.00;95.60;;;;;;5091184;28;20102;-81
2021/04/08 02:06:48;;;;;;;10.63;1.40;;;1.10;95.60;;;;;;5081938;28;20364;-82
2021/04/08 02:09:14;;;;;;;13.82;1.95;;;1.20;95.60;;;;;;5079565;28;20288;-81
2021/04/08 02:11:40;;;;;;;10.80;1.40;;;1.20;95.60;;;;;;5063736;28;20071;-81
2021/04/08 02:14:10;;;;;;;19.27;2.25;;;1.20;95.50;;;;;;5091102;28;20035;-81
2021/04/08 02:16:37;;;;;;;9.50;1.77;;;1.30;95.60;;;;;;5086961;28;20081;-81
2021/04/08 02:19:06;;;;;;;12.10;1.73;;;1.30;95.50;;;;;;5090168;28;20024;-81
2021/04/08 02:21:32;;;;;;;12.07;1.33;;;1.30;95.50;;;;;;5070473;28;20040;-82
2021/04/08 02:23:58;;;;;;;10.73;1.35;;;1.30;95.50;;;;;;5079027;28;20024;-81
2021/04/08 02:26:25;;;;;;;10.00;1.65;;;1.30;95.50;;;;;;5061403;28;20044;-82
2021/04/08 02:28:53;;;;;;;11.57;1.55;;;1.40;95.50;;;;;;5081451;28;20470;-81
2021/04/08 02:31:19;;;;;;;12.52;1.42;;;1.30;95.50;;;;;;5067256;28;20414;-82
2021/04/08 02:33:45;;;;;;;10.18;1.52;;;1.40;95.50;;;;;;5088488;28;20040;-81
2021/04/08 02:36:11;;;;;;;10.82;1.60;;;1.40;95.50;;;;;;5084614;28;20055;-82
2021/04/08 02:38:37;;;;;;;9.75;1.42;;;1.30;95.50;;;;;;5056275;28;20054;-82
2021/04/08 02:41:06;;;;;;;19.80;1.90;;;1.40;95.60;;;;;;5055178;28;20525;-82
2021/04/08 02:43:32;;;;;;;8.90;1.58;;;1.40;95.60;;;;;;5084208;28;20089;-82
2021/04/08 02:45:59;;;;;;;8.77;1.48;;;1.40;95.60;;;;;;5067609;28;20029;-82
2021/04/08 02:48:25;;;;;;;13.73;2.25;;;1.40;95.60;;;;;;5059838;28;20054;-81
2021/04/08 02:50:54;;;;;;;12.45;2.33;;;1.40;95.60;;;;;;5076802;28;20039;-82
2021/04/08 02:53:46;;;;;;;8.15;1.55;;;1.40;95.40;;;;;;5055081;28;20048;-81
2021/04/08 02:56:17;;;;;;;11.25;1.88;;;1.40;95.50;;;;;;5073960;28;20568;-81
2021/04/08 02:58:46;;;;;;;9.52;0.95;;;1.50;95.50;;;;;;5075361;28;20044;-80
2021/04/08 03:01:20;;;;;;;15.90;1.38;;;1.50;95.50;;;;;;5043324;28;20024;-82
2021/04/08 03:03:54;;;;;;;15.65;1.83;;;1.60;95.60;;;;;;5076778;28;20036;-82
2021/04/08 03:06:21;;;;;;;13.93;1.48;;;1.50;95.50;;;;;;5081155;28;20055;-81
2021/04/08 03:08:53;;;;;;;14.23;1.70;;;1.50;95.50;;;;;;5067933;28;20474;-82
2021/04/08 03:11:24;;;;;;;12.15;2.00;;;1.50;95.40;;;;;;5084318;28;20067;-83
2021/04/08 03:13:52;;;;;;;9.93;1.20;;;1.50;95.40;;;;;;5068597;28;20036;-83
2021/04/08 03:16:23;;;;;;;12.15;2.33;;;1.50;95.40;;;;;;5069833;28;20051;-82
2021/04/08 03:18:52;;;;;;;6.53;1.17;;;1.50;95.40;;;;;;5082367;28;20024;-82
2021/04/08 03:21:18;;;;;;;10.15;1.15;;;1.50;95.30;;;;;;5088304;28;20082;-82
2021/04/08 03:23:45;;;;;;;13.15;1.60;;;1.50;95.40;;;;;;5070083;28;20251;-82
2021/04/08 03:26:12;;;;;;;9.02;1.20;;;1.60;95.30;;;;;;5071026;28;20039;-82
2021/04/08 03:28:42;;;;;;;10.77;1.23;;;1.50;95.20;;;;;;5058087;28;20517;-81
2021/04/08 03:31:09;;;;;;;13.38;1.50;;;1.50;95.10;;;;;;5066930;28;20103;-83
2021/04/08 03:33:35;;;;;;;8.50;2.88;;;1.60;95.00;;;;;;5063190;28;20568;-82
2021/04/08 03:36:02;;;;;;;5.13;1.58;;;1.50;95.00;;;;;;5076423;28;20032;-81
2021/04/08 03:38:29;;;;;;;10.57;1.30;;;1.50;94.90;;;;;;5065988;28;20058;-82
2021/04/08 03:40:59;;;;;;;13.00;1.65;;;1.60;94.90;;;;;;5074873;28;20223;-82
2021/04/08 03:43:26;;;;;;;8.20;1.40;;;1.50;94.80;;;;;;5085183;28;20036;-82
2021/04/08 03:45:58;;;;;;;8.57;1.23;;;1.50;94.90;;;;;;5085653;28;20047;-82
2021/04/08 03:48:25;;;;;;;18.73;1.83;;;1.40;94.90;;;;;;5093010;28;20087;-83
2021/04/08 03:50:52;;;;;;;12.82;1.60;;;1.50;94.90;;;;;;5083653;28;20047;-81
2021/04/08 03:53:19;;;;;;;8.27;1.48;;;1.50;95.00;;;;;;5062170;28;20043;-81
2021/04/08 03:55:46;;;;;;;13.13;1.58;;;1.50;95.00;;;;;;5057918;28;20084;-81
2021/04/08 03:58:13;;;;;;;9.23;1.15;;;1.50;95.00;;;;;;5079341;28;20032;-80
2021/04/08 04:00:40;;;;;;;14.73;1.50;;;1.50;95.00;;;;;;5039400;28;20047;-82
2021/04/08 04:03:14;;;;;;;9.30;1.52;;;1.50;95.00;;;;;;5055977;28;20482;-82
2021/04/08 04:05:42;;;;;;;8.05;1.27;;;1.50;95.00;;;;;;5058078;28;20036;-82
2021/04/08 04:08:10;;;;;;;12.82;1.35;;;1.40;95.00;;;;;;5072591;28;20509;-82
2021/04/08 04:10:38;;;;;;;12.63;1.98;;;1.40;94.90;;;;;;5082289;28;20048;-79
2021/04/08 04:13:05;;;;;;;10.55;1.40;;;1.40;94.90;;;;;;5084193;28;20031;-81
2021/04/08 04:15:35;;;;;;;8.32;1.45;;;1.40;94.90;;;;;;5069531;28;20079;-83
2021/04/08 04:18:05;;;;;;;8.95;1.70;;;1.30;95.00;;;;;;5090401;28;20040;-82
2021/04/08 04:20:32;;;;;;;6.13;1.35;;;1.20;94.90;;;;;;5094721;28;20110;-82
2021/04/08 04:22:58;;;;;;;13.50;1.45;;;1.20;94.90;;;;;;5064572;28;20575;-80
2021/04/08 04:25:24;;;;;;;11.75;1.75;;;1.20;95.00;;;;;;5062906;28;20056;-82
2021/04/08 04:27:50;;;;;;;6.88;1.30;;;1.20;95.30;;;;;;5098005;28;20035;-83
2021/04/08 04:30:19;;;;;;;8.02;1.52;;;1.10;95.10;;;;;;5091828;28;20032;-82
2021/04/08 04:32:45;;;;;;;18.02;2.08;;;1.20;95.10;;;;;;5090894;28;20328;-81
2021/04/08 04:35:12;;;;;;;13.27;1.95;;;1.10;95.10;;;;;;5058945;28;20095;-81
2021/04/08 04:37:38;;;;;;;12.73;2.72;;;1.20;95.20;;;;;;5073950;28;20413;-82
2021/04/08 04:40:05;;;;;;;9.18;1.33;;;1.10;95.10;;;;;;5085640;28;20099;-81
2021/04/08 04:42:31;;;;;;;12.57;1.73;;;1.20;95.20;;;;;;5072090;28;20143;-83
2021/04/08 04:44:57;;;;;;;11.35;1.63;;;1.20;95.10;;;;;;5087124;28;20036;-83
2021/04/08 04:47:23;;;;;;;10.35;1.60;;;1.20;95.20;;;;;;5091138;28;22072;-82
2021/04/08 04:49:50;;;;;;;7.30;1.35;;;1.40;95.20;;;;;;5067046;28;20456;-81
2021/04/08 04:52:16;;;;;;;12.95;1.95;;;1.30;95.20;;;;;;5068605;28;20029;-82
2021/04/08 04:54:42;;;;;;;13.15;1.50;;;1.30;95.20;;;;;;5071895;28;20039;-80
2021/04/08 04:57:08;;;;;;;14.15;2.00;;;1.30;95.20;;;;;;5062032;28;20044;-80
2021/04/08 04:59:34;;;;;;;11.43;1.67;;;1.30;95.20;;;;;;5068845;28;20028;-80
2021/04/08 05:02:00;;;;;;;11.15;1.60;;;1.40;95.20;;;;;;5060282;28;20098;-81
2021/04/08 05:04:43;;;;;;;17.33;1.70;;;1.40;95.20;;;;;;5079493;28;20040;-81
2021/04/08 05:07:09;;;;;;;11.23;1.63;;;1.40;95.20;;;;;;5066681;28;20039;-81
2021/04/08 05:09:34;;;;;;;11.70;1.40;;;1.40;95.20;;;;;;5064381;28;20047;-82
2021/04/08 05:12:00;;;;;;;9.90;1.60;;;1.40;95.10;;;;;;5064893;28;20032;-81
2021/04/08 05:14:26;;;;;;;10.55;1.65;;;1.40;95.20;;;;;;5083464;28;20449;-83
2021/04/08 05:16:53;;;;;;;6.50;1.33;;;1.50;95.20;;;;;;5085318;28;20032;-81
2021/04/08 05:19:21;;;;;;;8.75;1.23;;;1.50;95.10;;;;;;5066164;28;20032;-81
2021/04/08 05:21:50;;;;;;;15.30;2.22;;;1.50;95.10;;;;;;5075822;28;20038;-80
2021/04/08 05:24:17;;;;;;;17.50;1.98;;;1.60;95.10;;;;;;5054338;28;20120;-81
2021/04/08 05:26:43;;;;;;;7.88;1.38;;;1.50;95.10;;;;;;5063724;28;20866;-82
2021/04/08 05:29:09;;;;;;;9.13;1.70;;;1.60;95.10;;;;;;5073039;28;20031;-81
2021/04/08 05:31:35;;;;;;;8.73;1.55;;;1.50;95.00;;;;;;5053861;28;20036;-81
2021/04/08 05:34:01;;;;;;;13.68;2.08;;;1.50;95.00;;;;;;5048623;28;20090;-82
2021/04/08 05:36:27;;;;;;;13.35;1.75;;;1.60;95.00;;;;;;5061151;28;20032;-83
2021/04/08 05:38:52;;;;;;;6.40;1.80;;;1.50;95.00;;;;;;5063228;28;20116;-83
2021/04/08 05:41:18;;;;;;;11.60;2.00;;;1.50;95.00;;;;;;5047195;28;20036;-83
2021/04/08 05:43:44;;;;;;;8.05;1.65;;;1.60;95.10;;;;;;5086211;28;20029;-83
2021/04/08 05:46:12;;;;;;;11.88;1.92;;;1.60;95.10;;;;;;5078170;28;20028;-83
2021/04/08 05:48:37;;;;;;;8.80;1.40;;;1.60;95.10;;;;;;5053238;28;20400;-83
2021/04/08 05:51:04;;;;;;;8.88;2.15;;;1.60;95.10;;;;;;5044026;28;20139;-83
2021/04/08 05:53:30;;;;;;;9.88;1.50;;;1.70;95.20;;;;;;5072166;28;20088;-83
2021/04/08 05:55:56;;;;;;;9.63;2.00;;;1.70;95.20;;;;;;5069351;28;20025;-83
2021/04/08 05:58:22;;;;;;;11.15;1.88;;;1.70;95.10;;;;;;5068073;28;20235;-82
2021/04/08 06:00:48;;;;;;;10.55;1.83;;;1.80;95.20;;;;;;5047035;28;20131;-82
2021/04/08 06:03:14;;;;;;;14.05;1.80;;;1.90;95.20;;;;;;5087953;28;20056;-82
2021/04/08 06:05:40;;;;;;;9.82;1.33;;;1.90;95.10;;;;;;5069494;28;20253;-84
2021/04/08 06:08:06;;;;;;;8.30;1.60;;;2.00;95.10;;;;;;5043099;28;20081;-83
2021/04/08 06:10:33;;;;;;;11.48;2.55;;;2.10;95.00;;;;;;5080013;28;20131;-83
2021/04/08 06:13:00;;;;;;;8.48;1.48;;;2.20;94.90;;;;;;5068609;28;20051;-82
2021/04/08 06:15:31;;;;;;;9.07;1.73;;;2.30;94.90;;;;;;5074202;28;20127;-83
2021/04/08 06:17:56;;;;;;;7.88;1.30;;;2.30;94.80;;;;;;5083612;28;20028;-83
2021/04/08 06:20:25;;;;;;;12.15;1.80;;;2.40;94.70;;;;;;5052879;28;20036;-83
2021/04/08 06:22:56;;;;;;;11.75;1.55;;;2.50;94.60;;;;;;5049881;28;20039;-82
2021/04/08 06:25:23;;;;;;;10.18;1.63;;;2.60;94.70;;;;;;5062888;28;20514;-82
2021/04/08 06:27:50;;;;;;;12.77;1.83;;;2.60;94.40;;;;;;5074205;28;20036;-83
2021/04/08 06:30:16;;;;;;;8.05;1.38;;;2.70;94.30;;;;;;5078922;28;20039;-84
2021/04/08 06:32:42;;;;;;;11.73;1.70;;;2.80;94.40;;;;;;5054676;28;20218;-83
2021/04/08 06:35:09;;;;;;;8.10;2.58;;;2.80;94.40;;;;;;5062286;28;20028;-82
2021/04/08 06:37:35;;;;;;;6.10;1.25;;;2.80;94.20;;;;;;5057996;28;20078;-82
2021/04/08 06:40:01;;;;;;;8.25;1.45;;;2.90;94.30;;;;;;5078558;28;20035;-81
2021/04/08 06:42:27;;;;;;;9.48;1.60;;;2.90;94.10;;;;;;5069168;28;20517;-82
2021/04/08 06:44:56;;;;;;;8.90;1.75;;;2.90;94.10;;;;;;5065535;28;20040;-82
2021/04/08 06:48:14;;;;;;;8.45;1.67;;;3.00;94.10;;;;;;5033395;28;20066;-83
2021/04/08 06:50:42;;;;;;;8.55;1.30;;;3.00;94.50;;;;;;5057052;28;20525;-84
2021/04/08 06:53:08;;;;;;;8.85;1.30;;;3.00;94.00;;;;;;5073819;28;20463;-84
2021/04/08 06:55:35;;;;;;;10.15;1.60;;;3.10;94.10;;;;;;5053967;28;20028;-83
2021/04/08 06:58:05;;;;;;;8.63;1.48;;;3.10;94.10;;;;;;5054945;28;20091;-83
2021/04/08 07:00:35;;;;;;;8.30;1.73;;;3.20;94.20;;;;;;5035153;28;20128;-82
2021/04/08 07:03:07;;;;;;;7.90;1.58;;;3.20;94.00;;;;;;5065401;28;20093;-82
2021/04/08 07:05:33;;;;;;;6.07;1.40;;;3.30;94.00;;;;;;5054070;28;20043;-82
2021/04/08 07:07:59;;;;;;;9.93;1.38;;;3.40;93.90;;;;;;5064726;28;20032;-82
2021/04/08 07:10:25;;;;;;;10.85;1.98;;;3.40;93.90;;;;;;5036289;28;21019;-82
2021/04/08 07:12:53;;;;;;;10.38;1.65;;;3.40;93.90;;;;;;5048002;28;20036;-82
2021/04/08 07:15:20;;;;;;;4.88;1.40;;;3.40;93.80;;;;;;5071942;28;20057;-81
2021/04/08 07:17:46;;;;;;;10.80;1.48;;;3.40;93.80;;;;;;5074952;28;20047;-83
2021/04/08 07:20:13;;;;;;;7.00;1.83;;;3.50;93.70;;;;;;5084769;28;20054;-81
2021/04/08 07:22:45;;;;;;;8.43;1.67;;;3.50;93.70;;;;;;5083425;28;20393;-82
2021/04/08 07:25:20;;;;;;;9.13;1.20;;;3.60;93.20;;;;;;5039146;28;20040;-82
2021/04/08 07:27:46;;;;;;;6.97;1.50;;;3.60;93.50;;;;;;5080428;28;20039;-81
2021/04/08 07:30:13;;;;;;;10.98;1.13;;;3.60;93.30;;;;;;5077839;28;20631;-81
2021/04/08 07:32:41;;;;;;;7.68;1.45;;;3.70;93.40;;;;;;5055890;28;20213;-82
2021/04/08 07:35:16;;;;;;;10.13;1.45;;;3.80;93.50;;;;;;5064534;28;20036;-81
2021/04/08 07:37:47;;;;;;;10.40;1.20;;;4.00;93.30;;;;;;5071588;28;20051;-82
2021/04/08 07:40:17;;;;;;;7.35;1.35;;;4.10;93.10;;;;;;5064925;28;20029;-82
2021/04/08 07:42:43;;;;;;;6.40;1.52;;;4.10;93.20;;;;;;5072979;28;20044;-80
2021/04/08 07:45:09;;;;;;;7.45;1.48;;;4.10;92.90;;;;;;5048622;28;20491;-81
2021/04/08 07:47:40;;;;;;;7.25;1.63;;;4.10;92.50;;;;;;5075871;28;20043;-82
2021/04/08 07:50:05;;;;;;;5.60;1.95;;;4.10;92.70;;;;;;5068517;28;20147;-82
2021/04/08 07:52:49;;;;;;;8.57;2.08;;;4.20;92.70;;;;;;5070020;28;20039;-83
2021/04/08 07:55:33;;;;;;;9.70;2.38;;;4.20;93.00;;;;;;5071516;28;20066;-83
2021/04/08 07:58:04;;;;;;;9.95;2.08;;;4.20;92.80;;;;;;5082820;28;20110;-83
2021/04/08 08:00:32;;;;;;;7.40;1.30;;;4.30;92.80;;;;;;5063473;28;20036;-83
2021/04/08 08:03:10;;;;;;;7.78;1.88;;;4.30;92.50;;;;;;5074954;28;20040;-80
2021/04/08 08:05:39;;;;;;;15.07;2.50;;;4.40;92.60;;;;;;5076579;28;20032;-82
2021/04/08 08:08:11;;;;;;;7.00;1.88;;;4.30;92.30;;;;;;5070405;28;20020;-83
2021/04/08 08:10:39;;;;;;;6.10;1.77;;;4.30;92.30;;;;;;5090485;28;20064;-83
2021/04/08 08:13:08;;;;;;;12.35;1.98;;;4.30;92.10;;;;;;5058987;28;20063;-82
2021/04/08 08:15:40;;;;;;;10.48;1.75;;;4.50;92.40;;;;;;5074680;28;20024;-82
2021/04/08 08:18:05;;;;;;;4.75;1.70;;;4.50;92.40;;;;;;5075390;28;20032;-83
2021/04/08 08:20:32;;;;;;;8.13;1.70;;;4.60;92.10;;;;;;5069124;28;20035;-83
2021/04/08 08:22:58;;;;;;;9.05;2.00;;;4.60;91.80;;;;;;5058554;28;20507;-82
2021/04/08 08:25:28;;;;;;;10.48;1.55;;;4.80;92.20;;;;;;5087064;28;20110;-82
2021/04/08 08:27:56;;;;;;;8.30;1.70;;;4.90;91.50;;;;;;5064660;28;20378;-84
2021/04/08 08:30:51;;;;;;;10.02;2.25;;;4.90;91.80;;;;;;5060696;28;20040;-83
2021/04/08 08:33:19;;;;;;;12.55;2.28;;;5.00;92.00;;;;;;5075680;28;20427;-83
2021/04/08 08:35:45;;;;;;;10.88;1.73;;;5.10;91.70;;;;;;5060242;28;20126;-81
2021/04/08 08:38:20;;;;;;;13.70;2.10;;;5.20;91.20;;;;;;5063655;28;20060;-80
2021/04/08 08:40:48;;;;;;;10.75;1.60;;;5.20;91.10;;;;;;5095233;28;20119;-81
2021/04/08 08:43:16;;;;;;;4.93;1.58;;;5.30;91.20;;;;;;5089638;28;20198;-83
2021/04/08 08:45:42;;;;;;;9.63;1.73;;;5.30;90.80;;;;;;5072864;28;20040;-83
2021/04/08 08:48:18;;;;;;;8.77;1.80;;;5.30;91.00;;;;;;5068125;28;20109;-84
2021/04/08 08:50:45;;;;;;;12.40;1.70;;;5.40;90.90;;;;;;5074840;28;20036;-84
2021/04/08 08:53:13;;;;;;;10.93;2.22;;;5.50;90.90;;;;;;5062465;28;20024;-84
2021/04/08 08:55:41;;;;;;;7.03;1.77;;;5.60;90.90;;;;;;5051085;28;20494;-80
2021/04/08 08:58:07;;;;;;;12.30;2.53;;;5.70;90.50;;;;;;5078123;28;20054;-81
2021/04/08 09:00:34;;;;;;;12.93;2.10;;;5.70;90.20;;;;;;5053273;28;20040;-82
2021/04/08 09:03:01;;;;;;;5.57;1.67;;;5.80;90.60;;;;;;5053021;28;20445;-78
2021/04/08 09:05:29;;;;;;;8.82;1.90;;;5.90;90.40;;;;;;5061064;28;20241;-82
2021/04/08 09:08:08;;;;;;;11.57;2.20;;;6.00;89.80;;;;;;5061378;28;20127;-83
2021/04/08 09:10:38;;;;;;;10.48;2.08;;;6.00;90.00;;;;;;5080983;28;20063;-82
2021/04/08 09:13:05;;;;;;;8.75;1.80;;;6.10;89.90;;;;;;5088931;28;20486;-82
2021/04/08 09:15:32;;;;;;;9.02;2.10;;;6.10;90.00;;;;;;5086929;28;20056;-82
2021/04/08 09:18:00;;;;;;;6.47;1.67;;;6.10;89.60;;;;;;5069204;28;20032;-82
2021/04/08 09:20:27;;;;;;;8.55;1.90;;;6.10;90.00;;;;;;5062587;28;20211;-82
2021/04/08 09:22:57;;;;;;;9.25;2.25;;;6.20;89.60;;;;;;5057437;28;20036;-82
2021/04/08 09:25:33;;;;;;;8.00;2.00;;;6.20;88.20;;;;;;5087326;28;20036;-82
2021/04/08 09:28:08;;;;;;;10.82;2.00;;;6.10;87.30;;;;;;5072554;28;20460;-81
2021/04/08 09:33:13;;;;;;;10.82;3.10;;;6.20;87.70;;;;;;5070700;28;20060;-80
2021/04/08 09:35:39;;;;;;;8.23;2.42;;;6.30;87.40;;;;;;5071511;28;20059;-82
2021/04/08 09:38:05;;;;;;;7.93;2.45;;;6.40;87.50;;;;;;5070582;28;20332;-83
2021/04/08 09:40:42;;;;;;;9.10;2.17;;;6.50;86.20;;;;;;5070028;28;20542;-83
2021/04/08 09:43:08;;;;;;;13.85;2.17;;;6.60;87.10;;;;;;5075412;28;20036;-83
2021/04/08 09:45:36;;;;;;;13.90;2.55;;;6.60;86.70;;;;;;5079136;28;20051;-83
2021/04/08 09:48:16;;;;;;;9.85;1.92;;;6.70;85.50;;;;;;5033385;28;20135;-83
2021/04/08 09:50:47;;;;;;;8.40;2.15;;;6.70;85.60;;;;;;5078516;28;20460;-84
2021/04/08 09:53:14;;;;;;;9.82;2.20;;;6.80;85.40;;;;;;5083924;28;20479;-81
2021/04/08 09:55:42;;;;;;;9.85;2.35;;;6.90;84.40;;;;;;5090257;28;20493;-81
2021/04/08 09:58:20;;;;;;;7.47;2.00;;;7.00;83.30;;;;;;5073870;28;20032;-82
2021/04/08 10:00:47;;;;;;;10.73;2.30;;;7.10;82.90;;;;;;5072635;28;20036;-81
2021/04/08 10:03:16;;;;;;;9.77;2.60;;;7.10;82.30;;;;;;5040196;28;20128;-80
2021/04/08 10:05:46;;;;;;;8.10;2.00;;;7.00;80.90;;;;;;5086072;28;20063;-83
2021/04/08 10:08:12;;;;;;;8.05;2.10;;;7.00;78.70;;;;;;5056979;28;20517;-81
2021/04/08 10:10:40;;;;;;;8.95;2.47;;;6.90;78.40;;;;;;5080536;28;20032;-80
2021/04/08 10:13:30;;;;;;;7.13;2.47;;;6.90;79.00;;;;;;5088915;28;20040;-81
2021/04/08 10:15:58;;;;;;;6.90;2.28;;;7.00;79.10;;;;;;5078027;28;20056;-80
2021/04/08 10:18:29;;;;;;;6.72;2.28;;;7.00;78.00;;;;;;5087021;28;20038;-81
2021/04/08 10:21:19;;;;;;;9.50;2.88;;;7.10;78.50;;;;;;5067830;28;20490;-80
2021/04/08 10:24:13;;;;;;;13.90;2.65;;;7.10;76.20;;;;;;5043119;28;20047;-80
2021/04/08 10:26:59;;;;;;;7.85;2.65;;;7.20;75.90;;;;;;5069546;28;20036;-81
2021/04/08 10:29:46;;;;;;;8.57;2.40;;;7.40;76.40;;;;;;5074767;28;20123;-80
2021/04/08 10:32:27;;;;;;;8.95;2.90;;;7.60;75.00;;;;;;5033955;28;20089;-79
2021/04/08 10:34:52;;;;;;;7.53;2.90;;;7.70;75.50;;;;;;5072151;28;20510;-80
2021/04/08 10:37:20;;;;;;;11.25;2.60;;;7.70;74.60;;;;;;5052329;28;20032;-81
2021/04/08 10:39:46;;;;;;;9.48;2.75;;;7.80;74.40;;;;;;5054313;28;20029;-79
2021/04/08 10:42:14;;;;;;;7.53;2.95;;;7.80;73.30;;;;;;5060116;28;20102;-79
2021/04/08 10:44:46;;;;;;;6.63;2.80;;;7.80;73.40;;;;;;5062217;28;20040;-81
2021/04/08 10:47:14;;;;;;;13.27;3.08;;;8.00;73.70;;;;;;5071806;28;20111;-80
2021/04/08 10:49:52;;;;;;;8.57;2.60;;;8.00;71.90;;;;;;5077762;28;20541;-81
2021/04/08 10:52:37;;;;;;;4.93;2.67;;;8.00;70.40;;;;;;5068683;28;20039;-81
2021/04/08 10:55:06;;;;;;;7.47;2.53;;;8.10;68.40;;;;;;5062915;28;20060;-80
2021/04/08 10:57:32;;;;;;;5.70;2.67;;;8.10;69.80;;;;;;5062681;28;20040;-82
2021/04/08 10:59:59;;;;;;;7.95;3.20;;;8.10;69.50;;;;;;5067345;28;20032;-80
2021/04/08 11:02:37;;;;;;;7.75;2.30;;;8.00;68.90;;;;;;5059893;28;20138;-82
2021/04/08 11:05:24;;;;;;;9.07;2.95;;;7.90;68.00;;;;;;5075263;28;20059;-80
2021/04/08 11:07:58;;;;;;;5.50;3.80;;;7.80;69.50;;;;;;5076478;28;20383;-79
2021/04/08 11:10:27;;;;;;;5.68;3.47;;;7.70;66.30;;;;;;5081293;28;20373;-82
2021/04/08 11:12:54;;;;;;;6.13;3.25;;;7.60;63.60;;;;;;5086745;28;20040;-81
2021/04/08 11:15:28;;;;;;;8.60;4.63;;;7.60;64.00;;;;;;5077730;28;20032;-81
2021/04/08 11:17:56;;;;;;;10.35;4.63;;;7.70;62.70;;;;;;5077989;28;20047;-81
2021/04/08 11:20:49;;;;;;;6.93;3.97;;;7.70;63.80;;;;;;5075833;28;20039;-82
2021/04/08 11:23:24;;;;;;;6.73;4.40;;;7.80;61.20;;;;;;5063356;28;20113;-81
2021/04/08 11:26:05;;;;;;;6.32;4.43;;;7.80;61.40;;;;;;5060519;28;20103;-80
2021/04/08 11:28:31;;;;;;;9.02;4.68;;;7.80;59.30;;;;;;5068545;28;20040;-79
2021/04/08 11:30:57;;;;;;;10.15;5.03;;;7.90;62.90;;;;;;5060450;28;20458;-82
2021/04/08 11:33:25;;;;;;;8.90;4.55;;;7.80;62.40;;;;;;5055322;28;20071;-81
2021/04/08 11:35:51;;;;;;;7.97;4.50;;;7.90;62.20;;;;;;5048858;28;20446;-79
2021/04/08 11:38:22;;;;;;;6.55;4.35;;;7.90;60.80;;;;;;5067612;28;20367;-79
2021/04/08 11:41:07;;;;;;;9.48;4.32;;;7.90;61.90;;;;;;5072031;28;20576;-79
2021/04/08 11:43:47;;;;;;;7.55;4.07;;;7.80;61.50;;;;;;5071279;28;20139;-83
2021/04/08 11:46:25;;;;;;;8.35;4.22;;;7.80;60.90;;;;;;5076612;28;20047;-82
2021/04/08 11:48:51;;;;;;;9.55;4.45;;;7.70;58.70;;;;;;5074167;28;20055;-81
2021/04/08 11:51:22;;;;;;;8.48;4.45;;;7.70;60.90;;;;;;5067374;28;20040;-79
2021/04/08 11:53:48;;;;;;;6.60;4.30;;;7.70;61.50;;;;;;5071076;28;20171;-81
2021/04/08 11:56:32;;;;;;;7.50;4.80;;;7.80;62.10;;;;;;5072682;28;20028;-82
2021/04/08 11:59:18;;;;;;;9.02;4.68;;;7.80;60.40;;;;;;5074359;28;20047;-80
2021/04/08 12:01:47;;;;;;;6.47;4.70;;;7.90;60.50;;;;;;5079840;28;20033;-85
2021/04/08 12:04:25;;;;;;;10.20;6.18;;;7.90;60.40;;;;;;5072066;28;20040;-83
2021/04/08 12:06:55;;;;;;;10.57;5.18;;;8.00;59.40;;;;;;5072108;28;20047;-81
2021/04/08 12:09:35;;;;;;;14.75;5.82;;;8.10;61.10;;;;;;5073629;28;20028;-80
2021/04/08 12:12:01;;;;;;;8.68;5.25;;;8.20;58.90;;;;;;5039075;28;20067;-80
2021/04/08 12:14:27;;;;;;;7.97;5.15;;;8.40;61.70;;;;;;5074381;28;21165;-79
2021/04/08 12:17:12;;;;;;;12.05;6.32;;;8.30;60.70;;;;;;5066122;28;20062;-78
2021/04/08 12:19:37;;;;;;;12.02;5.93;;;8.30;60.00;;;;;;5069612;28;20082;-81
2021/04/08 12:22:09;;;;;;;9.23;6.43;;;8.20;60.30;;;;;;5050937;28;20068;-79
2021/04/08 12:24:35;;;;;;;18.90;7.25;;;8.10;61.10;;;;;;5073328;28;20040;-80
2021/04/08 12:27:01;;;;;;;12.60;6.35;;;8.10;61.70;;;;;;5054679;28;20110;-79
2021/04/08 12:29:27;;;;;;;15.23;6.93;;;8.10;61.70;;;;;;5071057;28;20036;-82
2021/04/08 12:31:54;;;;;;;11.65;6.72;;;8.10;61.60;;;;;;5038056;28;20089;-79
2021/04/08 12:34:23;;;;;;;13.18;7.35;;;8.10;60.70;;;;;;5050999;28;20287;-79
2021/04/08 12:36:50;;;;;;;11.27;7.22;;;8.40;61.50;;;;;;5055977;28;20101;-80
2021/04/08 12:39:16;;;;;;;10.75;7.15;;;8.60;61.20;;;;;;5076560;28;20051;-80
2021/04/08 12:41:43;;;;;;;10.00;7.60;;;8.70;60.10;;;;;;5081722;28;20028;-79
2021/04/08 12:44:09;;;;;;;16.05;7.57;;;8.70;60.30;;;;;;5084772;28;20032;-82
2021/04/08 12:46:35;;;;;;;16.85;7.65;;;8.60;60.70;;;;;;5077157;28;20401;-79
2021/04/08 12:49:01;;;;;;;10.80;7.70;;;8.60;60.60;;;;;;5063171;28;20028;-82
2021/04/08 12:51:27;;;;;;;12.10;6.53;;;8.60;60.40;;;;;;5075314;28;20044;-80
2021/04/08 12:53:54;;;;;;;12.32;6.85;;;8.50;60.30;;;;;;5070275;28;20082;-83
2021/04/08 12:56:23;;;;;;;14.23;6.97;;;8.40;60.00;;;;;;5035888;28;20070;-80
2021/04/08 12:58:49;;;;;;;15.68;7.78;;;8.30;61.10;;;;;;5054331;28;20028;-79
2021/04/08 13:01:15;;;;;;;13.02;6.85;;;8.50;61.50;;;;;;5063398;28;20111;-80
2021/04/08 13:03:41;;;;;;;12.25;7.25;;;8.80;60.40;;;;;;5038601;28;20143;-82
2021/04/08 13:06:07;;;;;;;11.60;7.10;;;8.90;59.60;;;;;;5069069;28;20046;-82